Time;durP1;ratioP1;P1;durP2;ratioP2;P2;SDS_P1;SDS_P2;PMS_P1;PMS_P2;Temp;Humidity;BMP_temperature;BMP_pressure;BME280_temperature;BME280_humidity;BME280_pressure;Samples;Min_cycle;Max_cycle;Signal;HPM_P1;HPM_P2
2022/04/07 00:01:13;;;;;;;0.55;0.55;;;;;;;;;;7427228;19;20082;-79
2022/04/07 00:03:39;;;;;;;0.90;0.60;;;;;;;;;;7426883;19;20056;-78
2022/04/07 00:06:09;;;;;;;4.60;0.68;;;;;;;;;;7427413;19;20011;-79
2022/04/07 00:08:35;;;;;;;1.05;0.80;;;;;;;;;;7419067;19;20039;-79
2022/04/07 00:11:00;;;;;;;1.17;0.70;;;;;;;;;;7404015;19;19999;-79
2022/04/07 00:13:25;;;;;;;1.00;0.70;;;;;;;;;;7401977;19;20074;-79
2022/04/07 00:15:53;;;;;;;1.35;0.68;;;;;;;;;;7400046;19;20007;-79
2022/04/07 00:18:18;;;;;;;0.45;0.40;;;;;;;;;;7402513;19;20002;-79
2022/04/07 00:20:44;;;;;;;0.68;0.50;;;;;;;;;;7401398;19;20021;-78
2022/04/07 00:23:09;;;;;;;0.70;0.57;;;;;;;;;;7402905;19;20014;-79
2022/04/07 00:25:34;;;;;;;0.50;0.50;;;;;;;;;;7404530;19;20003;-79
2022/04/07 00:27:59;;;;;;;0.40;0.40;;;;;;;;;;7401975;19;20014;-79
2022/04/07 00:30:25;;;;;;;1.08;0.98;;;;;;;;;;7399465;19;20010;-79
2022/04/07 00:32:50;;;;;;;0.63;0.60;;;;;;;;;;7402906;19;20371;-79
2022/04/07 00:35:17;;;;;;;1.92;0.65;;;;;;;;;;7400240;19;20006;-79
2022/04/07 00:37:43;;;;;;;1.17;0.60;;;;;;;;;;7401348;19;20028;-79
2022/04/07 00:40:10;;;;;;;0.65;0.63;;;;;;;;;;7402054;19;20018;-79
2022/04/07 00:42:52;;;;;;;0.90;0.57;;;;;;;;;;7404195;19;20002;-79
2022/04/07 00:45:20;;;;;;;0.70;0.70;;;;;;;;;;7401030;19;20010;-79
2022/04/07 00:47:47;;;;;;;1.75;0.52;;;;;;;;;;7402707;19;20007;-79
2022/04/07 00:50:14;;;;;;;0.45;0.43;;;;;;;;;;7400347;19;20011;-79
2022/04/07 00:52:55;;;;;;;0.70;0.60;;;;;;;;;;7399786;19;20014;-79
2022/04/07 00:55:21;;;;;;;0.60;0.60;;;;;;;;;;7403231;19;20021;-79
2022/04/07 00:57:47;;;;;;;1.45;0.60;;;;;;;;;;7400803;19;20039;-79
2022/04/07 01:00:13;;;;;;;0.60;0.60;;;;;;;;;;7401714;19;20010;-79
2022/04/07 01:02:39;;;;;;;1.00;0.70;;;;;;;;;;7398312;19;20010;-79
2022/04/07 01:05:06;;;;;;;1.95;0.82;;;;;;;;;;7403026;19;20014;-79
2022/04/07 01:07:37;;;;;;;0.73;0.70;;;;;;;;;;7399772;19;20003;-79
2022/04/07 01:10:03;;;;;;;1.42;0.80;;;;;;;;;;7401273;19;20446;-79
2022/04/07 01:12:28;;;;;;;0.80;0.60;;;;;;;;;;7400925;19;20002;-79
2022/04/07 01:14:59;;;;;;;1.15;0.60;;;;;;;;;;7401803;19;20018;-79
2022/04/07 01:17:25;;;;;;;0.40;0.40;;;;;;;;;;7402262;19;20067;-79
2022/04/07 01:19:51;;;;;;;2.33;1.05;;;;;;;;;;7396825;19;20048;-79
2022/04/07 01:22:17;;;;;;;0.93;0.47;;;;;;;;;;7400415;19;20003;-79
2022/04/07 01:24:43;;;;;;;0.45;0.45;;;;;;;;;;7397409;19;20011;-79
2022/04/07 01:27:08;;;;;;;1.10;0.60;;;;;;;;;;7400595;19;20117;-79
2022/04/07 01:29:33;;;;;;;1.40;0.63;;;;;;;;;;7397504;19;20010;-79
2022/04/07 01:32:08;;;;;;;1.65;0.65;;;;;;;;;;7397616;19;20018;-79
2022/04/07 01:34:33;;;;;;;0.60;0.60;;;;;;;;;;7397276;19;20015;-79
2022/04/07 01:36:58;;;;;;;0.60;0.60;;;;;;;;;;7399773;19;20010;-79
2022/04/07 01:39:27;;;;;;;1.48;0.60;;;;;;;;;;7400683;19;20434;-79
2022/04/07 01:41:54;;;;;;;1.17;0.60;;;;;;;;;;7400457;19;20331;-79
2022/04/07 01:44:20;;;;;;;0.55;0.47;;;;;;;;;;7397791;19;20111;-79
2022/04/07 01:46:48;;;;;;;1.20;0.52;;;;;;;;;;7396374;19;20018;-79
2022/04/07 01:49:14;;;;;;;0.75;0.75;;;;;;;;;;7399313;19;20007;-79
2022/04/07 01:51:39;;;;;;;1.60;0.75;;;;;;;;;;7397009;19;20003;-79
2022/04/07 01:54:11;;;;;;;0.60;0.60;;;;;;;;;;7399627;19;20014;-79
2022/04/07 01:56:39;;;;;;;1.63;0.50;;;;;;;;;;7399712;19;20042;-79
2022/04/07 01:59:04;;;;;;;0.60;0.50;;;;;;;;;;7401614;19;20010;-79
2022/04/07 02:01:30;;;;;;;0.60;0.60;;;;;;;;;;7396344;19;20038;-79
2022/04/07 02:03:55;;;;;;;0.52;0.50;;;;;;;;;;7398049;19;20018;-79
2022/04/07 02:06:20;;;;;;;0.40;0.40;;;;;;;;;;7394956;19;20017;-79
2022/04/07 02:08:46;;;;;;;1.00;0.60;;;;;;;;;;7396870;19;20498;-79
2022/04/07 02:11:11;;;;;;;0.88;0.57;;;;;;;;;;7397867;19;20010;-79
2022/04/07 02:13:39;;;;;;;0.63;0.60;;;;;;;;;;7399083;19;20010;-79
2022/04/07 02:16:07;;;;;;;0.80;0.60;;;;;;;;;;7399029;19;20472;-78
2022/04/07 02:18:32;;;;;;;0.70;0.60;;;;;;;;;;7397505;19;20046;-79
2022/04/07 02:20:58;;;;;;;0.80;0.70;;;;;;;;;;7397445;19;20010;-79
2022/04/07 02:23:23;;;;;;;1.00;0.65;;;;;;;;;;7395567;19;20060;-79
2022/04/07 02:25:48;;;;;;;0.85;0.70;;;;;;;;;;7398109;19;20029;-79
2022/04/07 02:28:14;;;;;;;0.70;0.60;;;;;;;;;;7395955;19;20015;-79
2022/04/07 02:30:39;;;;;;;0.80;0.77;;;;;;;;;;7398017;19;20002;-79
2022/04/07 02:33:05;;;;;;;1.17;0.80;;;;;;;;;;7398289;19;20014;-79
2022/04/07 02:35:30;;;;;;;1.02;0.70;;;;;;;;;;7399645;19;20022;-79
2022/04/07 02:37:59;;;;;;;1.40;1.13;;;;;;;;;;7396945;19;20077;-79
2022/04/07 02:40:24;;;;;;;0.88;0.63;;;;;;;;;;7395583;19;20014;-79
2022/04/07 02:42:49;;;;;;;4.30;0.90;;;;;;;;;;7398059;19;20014;-79
2022/04/07 02:45:14;;;;;;;2.10;0.80;;;;;;;;;;7396839;19;20110;-79
2022/04/07 02:47:40;;;;;;;1.23;0.80;;;;;;;;;;7392517;19;20021;-79
2022/04/07 02:50:06;;;;;;;1.25;0.98;;;;;;;;;;7395306;19;20122;-79
2022/04/07 02:52:32;;;;;;;1.88;1.10;;;;;;;;;;7398308;19;20029;-79
2022/04/07 02:54:58;;;;;;;1.60;0.95;;;;;;;;;;7396909;19;19998;-79
2022/04/07 02:57:24;;;;;;;2.20;0.80;;;;;;;;;;7396661;19;20018;-79
2022/04/07 02:59:50;;;;;;;1.48;1.00;;;;;;;;;;7395534;19;20478;-79
2022/04/07 03:02:16;;;;;;;1.17;0.80;;;;;;;;;;7398111;19;20018;-79
2022/04/07 03:04:41;;;;;;;1.30;0.90;;;;;;;;;;7392924;19;20327;-79
2022/04/07 03:07:07;;;;;;;1.48;0.90;;;;;;;;;;7394383;19;20011;-79
2022/04/07 03:09:32;;;;;;;1.00;0.90;;;;;;;;;;7395119;19;19998;-80
2022/04/07 03:11:57;;;;;;;1.10;0.90;;;;;;;;;;7393586;19;20099;-79
2022/04/07 03:14:26;;;;;;;1.65;1.05;;;;;;;;;;7394304;19;20006;-79
2022/04/07 03:16:52;;;;;;;1.38;1.10;;;;;;;;;;7396217;19;20112;-79
2022/04/07 03:19:17;;;;;;;1.30;1.17;;;;;;;;;;7392571;19;20211;-79
2022/04/07 03:21:43;;;;;;;1.00;0.73;;;;;;;;;;7397047;19;20489;-79
2022/04/07 03:24:09;;;;;;;1.40;0.77;;;;;;;;;;7399351;19;20010;-79
2022/04/07 03:26:34;;;;;;;0.95;0.75;;;;;;;;;;7406337;19;20430;-78
2022/04/07 03:29:00;;;;;;;1.25;0.90;;;;;;;;;;7400057;19;20359;-79
2022/04/07 03:31:25;;;;;;;0.88;0.80;;;;;;;;;;7401831;19;20023;-79
2022/04/07 03:33:50;;;;;;;1.05;0.70;;;;;;;;;;7403646;19;20129;-79
2022/04/07 03:36:15;;;;;;;0.77;0.68;;;;;;;;;;7404343;19;20003;-79
2022/04/07 03:38:41;;;;;;;0.95;0.88;;;;;;;;;;7403530;19;20010;-79
2022/04/07 03:41:06;;;;;;;2.05;0.90;;;;;;;;;;7401783;19;20116;-79
2022/04/07 03:43:35;;;;;;;1.40;0.90;;;;;;;;;;7398096;19;20027;-79
2022/04/07 03:46:01;;;;;;;0.70;0.70;;;;;;;;;;7402523;19;20014;-80
2022/04/07 03:48:26;;;;;;;1.58;0.80;;;;;;;;;;7398039;19;20010;-80
2022/04/07 03:50:51;;;;;;;1.20;0.45;;;;;;;;;;7400914;19;20015;-80
2022/04/07 03:53:17;;;;;;;0.95;0.57;;;;;;;;;;7400551;19;20005;-80
2022/04/07 03:55:42;;;;;;;0.63;0.60;;;;;;;;;;7402706;19;20014;-80
2022/04/07 03:58:07;;;;;;;1.08;0.60;;;;;;;;;;7402635;19;19998;-79
2022/04/07 04:00:32;;;;;;;1.38;0.70;;;;;;;;;;7400844;19;20021;-79
2022/04/07 04:02:58;;;;;;;1.00;0.70;;;;;;;;;;7404929;19;20007;-80
2022/04/07 04:05:23;;;;;;;1.30;0.80;;;;;;;;;;7407216;19;20021;-79
2022/04/07 04:07:48;;;;;;;0.82;0.60;;;;;;;;;;7403206;19;20010;-79
2022/04/07 04:10:14;;;;;;;1.45;0.73;;;;;;;;;;7401491;19;20006;-80
2022/04/07 04:12:39;;;;;;;1.30;0.63;;;;;;;;;;7404603;19;20021;-79
2022/04/07 04:15:05;;;;;;;0.95;0.75;;;;;;;;;;7405484;19;20010;-80
2022/04/07 04:17:31;;;;;;;1.15;0.80;;;;;;;;;;7405296;19;20037;-80
2022/04/07 04:19:56;;;;;;;0.60;0.60;;;;;;;;;;7402933;19;20010;-80
2022/04/07 04:22:22;;;;;;;0.50;0.50;;;;;;;;;;7423086;19;20034;-80
2022/04/07 04:24:48;;;;;;;2.00;0.70;;;;;;;;;;7421908;19;20118;-80
2022/04/07 04:27:13;;;;;;;1.23;0.60;;;;;;;;;;7424748;19;20019;-80
2022/04/07 04:29:40;;;;;;;0.65;0.40;;;;;;;;;;7424667;19;20007;-80
2022/04/07 04:32:05;;;;;;;1.00;0.40;;;;;;;;;;7417610;19;20022;-79
2022/04/07 04:34:30;;;;;;;0.68;0.40;;;;;;;;;;7404708;19;20010;-79
2022/04/07 04:36:56;;;;;;;4.47;0.63;;;;;;;;;;7402380;19;20006;-80
2022/04/07 04:39:21;;;;;;;0.40;0.40;;;;;;;;;;7395950;19;20354;-79
2022/04/07 04:41:46;;;;;;;0.82;0.70;;;;;;;;;;7397808;19;20033;-81
2022/04/07 04:44:11;;;;;;;1.25;0.57;;;;;;;;;;7396371;19;20007;-80
2022/04/07 04:46:37;;;;;;;1.08;0.60;;;;;;;;;;7396196;19;20003;-80
2022/04/07 04:49:03;;;;;;;0.63;0.60;;;;;;;;;;7392577;19;20033;-80
2022/04/07 04:51:28;;;;;;;1.05;0.70;;;;;;;;;;7404432;19;20003;-80
2022/04/07 04:53:54;;;;;;;2.13;0.93;;;;;;;;;;7404490;19;20014;-80
2022/04/07 04:56:20;;;;;;;0.60;0.60;;;;;;;;;;7400095;19;20009;-78
2022/04/07 04:58:45;;;;;;;1.38;0.50;;;;;;;;;;7394728;19;20014;-80
2022/04/07 05:01:10;;;;;;;1.98;0.52;;;;;;;;;;7393769;19;20025;-80
2022/04/07 05:03:36;;;;;;;0.85;0.50;;;;;;;;;;7395804;19;20011;-79
2022/04/07 05:06:02;;;;;;;0.95;0.40;;;;;;;;;;7399341;19;20375;-79
2022/04/07 05:08:28;;;;;;;1.85;0.82;;;;;;;;;;7396085;19;20426;-79
2022/04/07 05:10:53;;;;;;;3.22;0.70;;;;;;;;;;7398466;19;20035;-79
2022/04/07 05:13:18;;;;;;;1.00;0.47;;;;;;;;;;7399959;19;20173;-79
2022/04/07 05:15:44;;;;;;;1.33;0.60;;;;;;;;;;7398939;19;20473;-79
2022/04/07 05:18:09;;;;;;;0.60;0.45;;;;;;;;;;7395081;19;20023;-79
2022/04/07 05:20:35;;;;;;;0.88;0.40;;;;;;;;;;7395865;19;19999;-80
2022/04/07 05:23:01;;;;;;;0.63;0.43;;;;;;;;;;7392641;19;20014;-80
2022/04/07 05:25:26;;;;;;;0.30;0.30;;;;;;;;;;7398798;19;20014;-80
2022/04/07 05:27:51;;;;;;;1.38;0.35;;;;;;;;;;7396374;19;20009;-80
2022/04/07 05:30:16;;;;;;;1.95;0.50;;;;;;;;;;7397698;19;20002;-81
2022/04/07 05:32:43;;;;;;;0.35;0.30;;;;;;;;;;7399625;19;20002;-80
2022/04/07 05:35:10;;;;;;;0.47;0.47;;;;;;;;;;7398536;19;20106;-79
2022/04/07 05:37:35;;;;;;;1.20;0.60;;;;;;;;;;7393684;19;19991;-80
2022/04/07 05:40:01;;;;;;;1.83;1.25;;;;;;;;;;7393420;19;20010;-80
2022/04/07 05:42:27;;;;;;;2.00;0.90;;;;;;;;;;7401065;19;20019;-79
2022/04/07 05:44:52;;;;;;;0.60;0.57;;;;;;;;;;7397167;19;20103;-79
2022/04/07 05:47:17;;;;;;;0.65;0.40;;;;;;;;;;7405189;19;20466;-79
2022/04/07 05:49:42;;;;;;;3.08;0.40;;;;;;;;;;7402855;19;20011;-80
2022/04/07 05:52:08;;;;;;;0.20;0.20;;;;;;;;;;7400290;19;20017;-80
2022/04/07 05:54:35;;;;;;;5.80;0.70;;;;;;;;;;7399009;19;20487;-80
2022/04/07 05:57:00;;;;;;;13.27;0.85;;;;;;;;;;7400360;19;20007;-80
2022/04/07 05:59:25;;;;;;;0.35;0.30;;;;;;;;;;7396768;19;20035;-81
2022/04/07 06:01:51;;;;;;;0.32;0.28;;;;;;;;;;7397975;19;19998;-79
2022/04/07 06:04:16;;;;;;;1.08;0.50;;;;;;;;;;7398186;19;20081;-81
2022/04/07 06:06:42;;;;;;;0.50;0.30;;;;;;;;;;7399227;19;20081;-79
2022/04/07 06:09:07;;;;;;;0.30;0.25;;;;;;;;;;7399209;19;20011;-79
2022/04/07 06:11:33;;;;;;;0.30;0.20;;;;;;;;;;7394475;19;20517;-79
2022/04/07 06:14:49;;;;;;;0.30;0.30;;;;;;;;;;7394599;19;20105;-79
2022/04/07 06:24:30;;;;;;;;;;;;;;;;;;;;;
2022/04/07 06:27:38;;;;;;;1.65;0.85;;;;;;;;;;7390911;19;20023;-78
2022/04/07 06:34:34;;;;;;;;;;;;;;;;;;;;;
2022/04/07 06:40:30;;;;;;;0.40;0.40;;;;;;;;;;7390411;19;20002;-78
2022/04/07 06:42:58;;;;;;;0.95;0.35;;;;;;;;;;7390256;19;20070;-79
2022/04/07 06:45:24;;;;;;;1.83;0.30;;;;;;;;;;7393213;19;20018;-79
2022/04/07 06:47:50;;;;;;;0.50;0.50;;;;;;;;;;7394898;19;20134;-79
2022/04/07 06:50:17;;;;;;;0.47;0.35;;;;;;;;;;7395373;19;20181;-79
2022/04/07 06:52:43;;;;;;;5.00;0.65;;;;;;;;;;7391556;19;20036;-78
2022/04/07 06:55:09;;;;;;;1.75;0.40;;;;;;;;;;7395909;19;19999;-78
2022/04/07 06:57:58;;;;;;;5.00;0.45;;;;;;;;;;7396898;19;20011;-79
2022/04/07 07:00:29;;;;;;;0.75;0.38;;;;;;;;;;7397680;19;20011;-79
2022/04/07 07:02:56;;;;;;;0.80;0.40;;;;;;;;;;7395878;19;20011;-79
2022/04/07 07:05:23;;;;;;;0.90;0.50;;;;;;;;;;7398653;19;20045;-78
2022/04/07 07:07:49;;;;;;;0.45;0.43;;;;;;;;;;7397955;19;19999;-79
2022/04/07 07:10:20;;;;;;;2.67;1.00;;;;;;;;;;7398435;19;20019;-79
2022/04/07 07:12:47;;;;;;;1.30;0.55;;;;;;;;;;7394116;19;20031;-79
2022/04/07 07:15:12;;;;;;;2.17;0.50;;;;;;;;;;7393941;19;20022;-79
2022/04/07 07:17:39;;;;;;;3.42;0.30;;;;;;;;;;7398376;19;20070;-78
2022/04/07 07:20:05;;;;;;;0.80;0.30;;;;;;;;;;7393764;19;20102;-79
2022/04/07 07:22:31;;;;;;;0.63;0.30;;;;;;;;;;7393016;19;20028;-78
2022/04/07 07:24:56;;;;;;;2.03;0.28;;;;;;;;;;7397605;19;20048;-78
2022/04/07 07:27:21;;;;;;;7.57;1.10;;;;;;;;;;7400630;19;20026;-79
2022/04/07 07:29:47;;;;;;;0.77;0.40;;;;;;;;;;7398330;19;20032;-78
2022/04/07 07:32:12;;;;;;;4.15;0.30;;;;;;;;;;7394879;19;20010;-79
2022/04/07 07:34:37;;;;;;;2.25;0.68;;;;;;;;;;7395243;19;20021;-79
2022/04/07 07:37:03;;;;;;;1.05;0.20;;;;;;;;;;7399994;19;20091;-79
2022/04/07 07:39:28;;;;;;;9.05;0.43;;;;;;;;;;7398358;19;20003;-79
2022/04/07 07:41:53;;;;;;;1.98;0.40;;;;;;;;;;7397932;19;20506;-79
2022/04/07 07:44:18;;;;;;;7.57;0.60;;;;;;;;;;7393175;19;20010;-79
2022/04/07 07:46:44;;;;;;;7.82;0.38;;;;;;;;;;7396282;19;20398;-79
2022/04/07 07:49:09;;;;;;;0.20;0.20;;;;;;;;;;7392673;19;19998;-79
2022/04/07 07:51:36;;;;;;;1.60;0.25;;;;;;;;;;7391079;19;19999;-79
2022/04/07 07:54:01;;;;;;;3.22;0.38;;;;;;;;;;7394311;19;20032;-79
2022/04/07 07:56:27;;;;;;;2.47;0.38;;;;;;;;;;7391964;19;19999;-79
2022/04/07 07:58:52;;;;;;;2.72;0.55;;;;;;;;;;7391053;19;20014;-80
2022/04/07 08:01:17;;;;;;;15.38;1.13;;;;;;;;;;7395155;19;20060;-78
2022/04/07 08:03:42;;;;;;;1.52;0.52;;;;;;;;;;7392115;19;20023;-79
2022/04/07 08:06:08;;;;;;;3.90;0.90;;;;;;;;;;7393723;19;20050;-79
2022/04/07 08:08:33;;;;;;;2.72;0.80;;;;;;;;;;7394931;19;20014;-79
2022/04/07 08:10:58;;;;;;;7.20;0.40;;;;;;;;;;7395329;19;20014;-79
2022/04/07 08:13:24;;;;;;;10.40;0.85;;;;;;;;;;7400529;19;20082;-79
2022/04/07 08:15:49;;;;;;;2.50;1.15;;;;;;;;;;7401694;19;20006;-79
2022/04/07 08:18:14;;;;;;;2.55;0.40;;;;;;;;;;7402113;19;20043;-79
2022/04/07 08:20:39;;;;;;;4.50;0.70;;;;;;;;;;7400121;19;20002;-79
2022/04/07 08:23:05;;;;;;;4.13;0.57;;;;;;;;;;7401698;19;20021;-79
2022/04/07 08:25:31;;;;;;;4.60;1.10;;;;;;;;;;7401745;19;20002;-79
2022/04/07 08:27:56;;;;;;;4.55;0.90;;;;;;;;;;7396389;19;20010;-79
2022/04/07 08:30:21;;;;;;;7.25;0.95;;;;;;;;;;7398512;19;20011;-79
2022/04/07 08:32:46;;;;;;;32.92;2.78;;;;;;;;;;7400037;19;20457;-78
2022/04/07 08:35:12;;;;;;;3.67;1.40;;;;;;;;;;7403967;19;20092;-80
2022/04/07 08:37:37;;;;;;;3.95;0.70;;;;;;;;;;7404299;19;20006;-79
2022/04/07 08:40:06;;;;;;;23.92;2.00;;;;;;;;;;7402542;19;20005;-79
2022/04/07 08:42:33;;;;;;;9.07;0.55;;;;;;;;;;7399281;19;20059;-80
2022/04/07 08:44:58;;;;;;;4.88;1.00;;;;;;;;;;7399760;19;20021;-78
2022/04/07 08:47:24;;;;;;;16.90;1.00;;;;;;;;;;7396551;19;20002;-79
2022/04/07 08:49:51;;;;;;;14.00;1.85;;;;;;;;;;7398162;19;20452;-79
2022/04/07 08:52:18;;;;;;;2.33;0.80;;;;;;;;;;7401194;19;20292;-79
2022/04/07 08:54:47;;;;;;;4.70;0.80;;;;;;;;;;7401456;19;20022;-79
2022/04/07 08:57:14;;;;;;;1.08;0.40;;;;;;;;;;7400355;19;20058;-79
2022/04/07 08:59:40;;;;;;;2.20;0.90;;;;;;;;;;7398819;19;20018;-80
2022/04/07 09:02:08;;;;;;;3.28;0.40;;;;;;;;;;7400196;19;20250;-80
2022/04/07 09:04:37;;;;;;;6.72;0.50;;;;;;;;;;7400860;19;20015;-80
2022/04/07 09:07:03;;;;;;;7.15;0.50;;;;;;;;;;7401980;19;20118;-80
2022/04/07 09:09:31;;;;;;;3.90;0.52;;;;;;;;;;7400779;19;20346;-79
2022/04/07 09:11:56;;;;;;;0.50;0.20;;;;;;;;;;7403123;19;20426;-81
2022/04/07 09:14:22;;;;;;;5.85;0.95;;;;;;;;;;7400327;19;20094;-80
2022/04/07 09:16:53;;;;;;;2.05;0.30;;;;;;;;;;7399600;19;20494;-80
2022/04/07 09:19:21;;;;;;;4.85;0.30;;;;;;;;;;7398114;19;20014;-80
2022/04/07 09:21:46;;;;;;;7.60;1.25;;;;;;;;;;7404525;19;20005;-80
2022/04/07 09:24:11;;;;;;;1.00;0.38;;;;;;;;;;7401258;19;20486;-80
2022/04/07 09:26:42;;;;;;;1.30;0.52;;;;;;;;;;7401286;19;20360;-79
2022/04/07 09:29:14;;;;;;;10.00;1.08;;;;;;;;;;7399273;19;20034;-80
2022/04/07 09:31:50;;;;;;;6.03;0.40;;;;;;;;;;7404514;19;20002;-80
2022/04/07 09:34:15;;;;;;;0.75;0.30;;;;;;;;;;7404155;19;20045;-81
2022/04/07 09:36:40;;;;;;;2.72;0.25;;;;;;;;;;7404338;19;20011;-80
2022/04/07 09:39:06;;;;;;;4.80;0.30;;;;;;;;;;7396988;19;20753;-80
2022/04/07 09:41:31;;;;;;;3.53;0.47;;;;;;;;;;7403077;19;20003;-80
2022/04/07 09:43:59;;;;;;;4.32;0.80;;;;;;;;;;7401389;19;20002;-80
2022/04/07 09:46:31;;;;;;;6.32;0.40;;;;;;;;;;7403550;19;20019;-80
2022/04/07 09:49:09;;;;;;;0.80;0.45;;;;;;;;;;7396474;19;20069;-80
2022/04/07 09:51:40;;;;;;;1.20;0.40;;;;;;;;;;7397218;19;20006;-81
2022/04/07 09:54:11;;;;;;;1.08;0.15;;;;;;;;;;7397554;19;20125;-79
2022/04/07 09:56:37;;;;;;;1.67;0.20;;;;;;;;;;7400480;19;20007;-80
2022/04/07 09:59:05;;;;;;;6.05;0.32;;;;;;;;;;7400890;19;20013;-79
2022/04/07 10:01:32;;;;;;;1.42;0.30;;;;;;;;;;7403543;19;20014;-80
2022/04/07 10:03:58;;;;;;;1.83;0.47;;;;;;;;;;7400251;19;20505;-80
2022/04/07 10:06:24;;;;;;;0.77;0.15;;;;;;;;;;7398719;19;20041;-80
2022/04/07 10:08:50;;;;;;;0.30;0.20;;;;;;;;;;7397759;19;20003;-79
2022/04/07 10:11:17;;;;;;;3.90;0.40;;;;;;;;;;7396067;19;20025;-81
2022/04/07 10:13:44;;;;;;;4.75;0.22;;;;;;;;;;7394754;19;20023;-79
2022/04/07 10:16:11;;;;;;;7.80;0.60;;;;;;;;;;7397407;19;20107;-81
2022/04/07 10:18:44;;;;;;;3.40;0.60;;;;;;;;;;7395733;19;20433;-81
2022/04/07 10:21:39;;;;;;;3.70;0.70;;;;;;;;;;7392389;19;20002;-81
2022/04/07 10:24:29;;;;;;;2.65;0.57;;;;;;;;;;7395078;19;20058;-80
2022/04/07 10:26:55;;;;;;;1.02;0.30;;;;;;;;;;7394993;19;20011;-81
2022/04/07 10:29:24;;;;;;;3.95;0.38;;;;;;;;;;7390706;19;20446;-82
2022/04/07 10:32:11;;;;;;;3.97;0.30;;;;;;;;;;7388778;19;20006;-81
2022/04/07 10:34:37;;;;;;;0.20;0.10;;;;;;;;;;7394504;19;20014;-82
2022/04/07 10:37:05;;;;;;;2.38;0.17;;;;;;;;;;7394474;19;19998;-81
2022/04/07 10:39:35;;;;;;;5.88;0.80;;;;;;;;;;7395243;19;20025;-82
2022/04/07 10:42:01;;;;;;;0.45;0.40;;;;;;;;;;7393584;19;20025;-82
2022/04/07 10:44:27;;;;;;;2.50;0.30;;;;;;;;;;7392990;19;20018;-81
2022/04/07 10:47:08;;;;;;;2.55;0.20;;;;;;;;;;7393314;19;20023;-82
2022/04/07 10:49:34;;;;;;;1.17;0.57;;;;;;;;;;7391270;19;20011;-82
2022/04/07 10:52:06;;;;;;;8.55;0.30;;;;;;;;;;7393442;19;20486;-81
2022/04/07 10:54:32;;;;;;;1.10;0.30;;;;;;;;;;7392688;19;20010;-81
2022/04/07 10:57:00;;;;;;;0.35;0.20;;;;;;;;;;7399050;19;20035;-81
2022/04/07 10:59:27;;;;;;;0.20;0.20;;;;;;;;;;7396193;19;20014;-79
2022/04/07 11:02:10;;;;;;;6.32;0.47;;;;;;;;;;7399816;19;19987;-79
2022/04/07 11:04:42;;;;;;;2.78;0.20;;;;;;;;;;7400820;19;20036;-78
2022/04/07 11:07:07;;;;;;;18.02;0.63;;;;;;;;;;7397564;19;20014;-80
2022/04/07 11:09:57;;;;;;;12.27;1.30;;;;;;;;;;7396444;19;20007;-79
2022/04/07 11:12:40;;;;;;;0.15;0.15;;;;;;;;;;7413176;19;19999;-78
2022/04/07 11:15:05;;;;;;;8.10;0.70;;;;;;;;;;7423004;19;20021;-77
2022/04/07 11:17:37;;;;;;;1.80;0.30;;;;;;;;;;7419055;19;20003;-77
2022/04/07 11:20:13;;;;;;;0.40;0.20;;;;;;;;;;7419265;19;20287;-77
2022/04/07 11:22:57;;;;;;;5.50;0.30;;;;;;;;;;7411760;19;20583;-78
2022/04/07 11:25:28;;;;;;;2.50;0.57;;;;;;;;;;7395912;19;19998;-78
2022/04/07 11:28:12;;;;;;;0.95;0.20;;;;;;;;;;7394299;19;19995;-79
2022/04/07 11:30:43;;;;;;;5.70;0.30;;;;;;;;;;7398956;19;20035;-79
2022/04/07 11:36:02;;;;;;;4.55;0.30;;;;;;;;;;7398988;19;19995;-80
2022/04/07 11:38:38;;;;;;;2.30;0.20;;;;;;;;;;7395985;19;20023;-78
2022/04/07 11:41:04;;;;;;;0.63;0.17;;;;;;;;;;7399624;19;20497;-79
2022/04/07 11:43:30;;;;;;;8.55;0.50;;;;;;;;;;7403094;19;20083;-78
2022/04/07 11:45:56;;;;;;;11.45;0.47;;;;;;;;;;7402851;19;20002;-74
2022/04/07 11:48:25;;;;;;;4.82;0.50;;;;;;;;;;7393133;19;20003;-77
2022/04/07 11:50:51;;;;;;;2.40;0.20;;;;;;;;;;7403065;19;20014;-78
2022/04/07 11:53:17;;;;;;;0.13;0.10;;;;;;;;;;7405062;19;20013;-78
2022/04/07 11:55:43;;;;;;;6.88;0.47;;;;;;;;;;7405728;19;20014;-79
2022/04/07 11:58:10;;;;;;;3.15;0.30;;;;;;;;;;7405363;19;20451;-82
2022/04/07 12:00:36;;;;;;;1.48;0.60;;;;;;;;;;7398647;19;20010;-78
2022/04/07 12:03:03;;;;;;;0.10;0.10;;;;;;;;;;7401113;19;20104;-77
2022/04/07 12:05:30;;;;;;;0.47;0.38;;;;;;;;;;7399773;19;20043;-78
2022/04/07 12:08:15;;;;;;;3.60;0.47;;;;;;;;;;7394968;19;20027;-77
2022/04/07 12:10:41;;;;;;;;;;;;;;;;;;7399944;19;19990;-76
2022/04/07 12:13:15;;;;;;;5.07;0.50;;;;;;;;;;7394488;19;19934;-77
2022/04/07 12:15:41;;;;;;;11.65;0.95;;;;;;;;;;7396841;19;20011;-78
2022/04/07 12:18:08;;;;;;;3.70;0.30;;;;;;;;;;7394739;19;20434;-77
2022/04/07 12:20:35;;;;;;;3.40;0.25;;;;;;;;;;7397667;19;20003;-77
2022/04/07 12:23:13;;;;;;;12.82;0.57;;;;;;;;;;7398043;19;20026;-77
2022/04/07 12:25:42;;;;;;;23.35;1.92;;;;;;;;;;7399325;19;20034;-78
2022/04/07 12:28:12;;;;;;;13.23;0.73;;;;;;;;;;7392313;19;20086;-77
2022/04/07 12:30:43;;;;;;;1.00;0.40;;;;;;;;;;7396152;19;20463;-77
2022/04/07 12:33:08;;;;;;;4.30;0.30;;;;;;;;;;7392815;19;20324;-78
2022/04/07 12:35:45;;;;;;;4.63;0.22;;;;;;;;;;7396641;19;20033;-77
2022/04/07 12:38:11;;;;;;;3.47;0.22;;;;;;;;;;7394517;19;20008;-77
2022/04/07 12:40:38;;;;;;;0.13;0.13;;;;;;;;;;7397173;19;20010;-78
2022/04/07 12:43:03;;;;;;;2.50;0.20;;;;;;;;;;7370461;19;19994;-78
2022/04/07 12:45:28;;;;;;;1.02;0.30;;;;;;;;;;7351270;19;20025;-77
2022/04/07 12:48:04;;;;;;;2.70;0.50;;;;;;;;;;7397158;19;20003;-76
2022/04/07 12:50:29;;;;;;;3.63;0.30;;;;;;;;;;7398313;19;20018;-77
2022/04/07 12:52:55;;;;;;;0.65;0.20;;;;;;;;;;7391190;19;19998;-78
2022/04/07 12:55:38;;;;;;;3.63;0.38;;;;;;;;;;7392534;19;20013;-77
2022/04/07 12:58:04;;;;;;;4.28;0.50;;;;;;;;;;7394286;19;19999;-76
2022/04/07 13:00:34;;;;;;;1.98;0.20;;;;;;;;;;7397914;19;20009;-77
2022/04/07 13:03:02;;;;;;;6.15;0.63;;;;;;;;;;7395513;19;20006;-78
2022/04/07 13:05:32;;;;;;;1.40;0.38;;;;;;;;;;7403735;19;20006;-78
2022/04/07 13:07:59;;;;;;;21.00;0.95;;;;;;;;;;7399557;19;20336;-78
2022/04/07 13:10:26;;;;;;;0.90;0.38;;;;;;;;;;7402666;19;20013;-79
2022/04/07 13:12:52;;;;;;;6.93;0.43;;;;;;;;;;7399760;19;20003;-79
2022/04/07 13:15:17;;;;;;;3.03;0.68;;;;;;;;;;7403439;19;20114;-78
2022/04/07 13:17:43;;;;;;;4.57;0.20;;;;;;;;;;7399451;19;20013;-79
2022/04/07 13:20:09;;;;;;;3.60;0.20;;;;;;;;;;7403122;19;20018;-78
2022/04/07 13:22:35;;;;;;;0.15;0.13;;;;;;;;;;7401200;19;20405;-79
2022/04/07 13:25:01;;;;;;;1.20;0.20;;;;;;;;;;7402088;19;20065;-78
2022/04/07 13:27:26;;;;;;;0.60;0.30;;;;;;;;;;7402157;19;20002;-79
2022/04/07 13:29:52;;;;;;;0.50;0.30;;;;;;;;;;7403892;19;20002;-78
2022/04/07 13:32:17;;;;;;;1.95;0.30;;;;;;;;;;7402904;19;20021;-78
2022/04/07 13:34:42;;;;;;;0.63;0.13;;;;;;;;;;7399073;19;20047;-79
2022/04/07 13:37:08;;;;;;;0.20;0.10;;;;;;;;;;7402873;19;20436;-80
2022/04/07 13:39:34;;;;;;;4.78;0.35;;;;;;;;;;7398757;19;20455;-79
2022/04/07 13:41:59;;;;;;;3.10;0.28;;;;;;;;;;7403925;19;20014;-79
2022/04/07 13:44:25;;;;;;;2.45;0.10;;;;;;;;;;7403696;19;20367;-78
2022/04/07 13:46:50;;;;;;;0.75;0.25;;;;;;;;;;7403123;19;20064;-79
2022/04/07 13:49:16;;;;;;;0.25;0.13;;;;;;;;;;7397816;19;20017;-79
2022/04/07 13:51:42;;;;;;;1.77;0.40;;;;;;;;;;7398773;19;20014;-78
2022/04/07 13:54:08;;;;;;;4.80;0.30;;;;;;;;;;7399644;19;20006;-77
2022/04/07 13:56:34;;;;;;;2.05;0.30;;;;;;;;;;7395168;19;20078;-79
2022/04/07 13:59:00;;;;;;;1.02;0.10;;;;;;;;;;7399257;19;20578;-79
2022/04/07 14:01:25;;;;;;;0.00;0.00;;;;;;;;;;7401761;19;19999;-78
2022/04/07 14:03:53;;;;;;;5.75;0.30;;;;;;;;;;7404836;19;20023;-79
2022/04/07 14:06:19;;;;;;;2.15;0.15;;;;;;;;;;7402021;19;20511;-79
2022/04/07 14:08:45;;;;;;;0.00;0.00;;;;;;;;;;7403593;19;20003;-78
2022/04/07 14:11:11;;;;;;;1.08;0.43;;;;;;;;;;7402710;19;20025;-79
2022/04/07 14:13:36;;;;;;;0.15;0.10;;;;;;;;;;7401804;19;20454;-79
2022/04/07 14:16:02;;;;;;;0.10;0.10;;;;;;;;;;7402655;19;20006;-79
2022/04/07 14:18:27;;;;;;;0.98;0.32;;;;;;;;;;7401177;19;20003;-79
2022/04/07 14:20:52;;;;;;;1.92;0.20;;;;;;;;;;7400302;19;20103;-79
2022/04/07 14:23:18;;;;;;;1.25;0.28;;;;;;;;;;7400687;19;20005;-79
2022/04/07 14:25:44;;;;;;;6.47;0.38;;;;;;;;;;7394052;19;20159;-77
2022/04/07 14:28:10;;;;;;;6.25;0.32;;;;;;;;;;7394389;19;20023;-77
2022/04/07 14:30:36;;;;;;;1.42;0.10;;;;;;;;;;7403177;19;20007;-79
2022/04/07 14:33:03;;;;;;;7.88;0.73;;;;;;;;;;7400685;19;20045;-78
2022/04/07 14:35:32;;;;;;;1.58;0.20;;;;;;;;;;7403260;19;20002;-79
2022/04/07 14:37:59;;;;;;;1.15;0.43;;;;;;;;;;7401020;19;20002;-78
2022/04/07 14:40:25;;;;;;;7.32;0.30;;;;;;;;;;7399483;19;20359;-78
2022/04/07 14:42:50;;;;;;;0.25;0.10;;;;;;;;;;7399938;19;20078;-78
2022/04/07 14:45:15;;;;;;;0.90;0.20;;;;;;;;;;7401977;19;20152;-78
2022/04/07 14:47:41;;;;;;;0.10;0.10;;;;;;;;;;7402747;19;20012;-78
2022/04/07 14:50:07;;;;;;;1.17;0.25;;;;;;;;;;7400284;19;20018;-79
2022/04/07 14:52:32;;;;;;;0.20;0.20;;;;;;;;;;7400585;19;20005;-78
2022/04/07 14:54:57;;;;;;;3.25;0.20;;;;;;;;;;7400070;19;19999;-78
2022/04/07 14:57:23;;;;;;;0.20;0.03;;;;;;;;;;7399896;19;20031;-78
2022/04/07 14:59:48;;;;;;;0.05;0.00;;;;;;;;;;7402915;19;20070;-79
2022/04/07 15:02:14;;;;;;;0.28;0.00;;;;;;;;;;7396360;19;20031;-78
2022/04/07 15:04:40;;;;;;;2.08;0.40;;;;;;;;;;7399686;19;20010;-79